sensor_id;sensor_type;location;lat;lon;timestamp;pressure;altitude;pressure_sealevel;temperature;humidity
8320;BME280;4197;42.130;24.746;2023-04-21T00:02:22;99060.94;;;10.47;100.00
8320;BME280;4197;42.130;24.746;2023-04-21T00:04:51;99055.09;;;10.45;100.00
8320;BME280;4197;42.130;24.746;2023-04-21T00:07:19;99057.03;;;10.45;100.00
8320;BME280;4197;42.130;24.746;2023-04-21T00:09:48;99053.84;;;10.39;100.00
8320;BME280;4197;42.130;24.746;2023-04-21T00:12:16;99049.50;;;10.35;100.00
8320;BME280;4197;42.130;24.746;2023-04-21T00:14:45;99043.66;;;10.33;100.00
8320;BME280;4197;42.130;24.746;2023-04-21T00:17:14;99046.31;;;10.29;100.00
8320;BME280;4197;42.130;24.746;2023-04-21T00:19:43;99048.25;;;10.29;100.00
8320;BME280;4197;42.130;24.746;2023-04-21T00:22:11;99045.06;;;10.26;100.00
8320;BME280;4197;42.130;24.746;2023-04-21T00:24:40;99046.56;;;10.24;100.00
8320;BME280;4197;42.130;24.746;2023-04-21T00:27:09;99048.47;;;10.20;100.00
8320;BME280;4197;42.130;24.746;2023-04-21T00:29:37;99044.09;;;10.15;100.00
8320;BME280;4197;42.130;24.746;2023-04-21T00:32:07;99042.13;;;10.12;100.00
8320;BME280;4197;42.130;24.746;2023-04-21T00:34:38;99037.78;;;10.08;100.00
8320;BME280;4197;42.130;24.746;2023-04-21T00:37:06;99038.50;;;10.04;100.00
8320;BME280;4197;42.130;24.746;2023-04-21T00:39:34;99043.91;;;10.04;100.00
8320;BME280;4197;42.130;24.746;2023-04-21T00:42:03;99036.94;;;10.03;100.00
8320;BME280;4197;42.130;24.746;2023-04-21T00:44:34;99050.50;;;10.03;100.00
8320;BME280;4197;42.130;24.746;2023-04-21T00:47:02;99033.44;;;10.03;100.00
8320;BME280;4197;42.130;24.746;2023-04-21T00:49:30;99033.81;;;10.01;100.00
8320;BME280;4197;42.130;24.746;2023-04-21T00:52:00;99029.44;;;9.97;100.00
8320;BME280;4197;42.130;24.746;2023-04-21T00:54:29;99032.16;;;9.97;100.00
8320;BME280;4197;42.130;24.746;2023-04-21T00:56:58;99032.88;;;9.94;100.00
8320;BME280;4197;42.130;24.746;2023-04-21T00:59:28;99036.31;;;9.91;100.00
8320;BME280;4197;42.130;24.746;2023-04-21T01:01:59;99033.16;;;9.89;100.00
8320;BME280;4197;42.130;24.746;2023-04-21T01:04:28;99036.59;;;9.86;100.00
8320;BME280;4197;42.130;24.746;2023-04-21T01:07:03;99031.13;;;9.82;100.00
8320;BME280;4197;42.130;24.746;2023-04-21T01:09:32;99028.75;;;9.80;100.00
8320;BME280;4197;42.130;24.746;2023-04-21T01:12:03;99024.84;;;9.78;100.00
8320;BME280;4197;42.130;24.746;2023-04-21T01:14:31;99027.94;;;9.76;100.00
8320;BME280;4197;42.130;24.746;2023-04-21T01:17:00;99032.56;;;9.76;100.00
8320;BME280;4197;42.130;24.746;2023-04-21T01:19:32;99032.56;;;9.76;100.00
8320;BME280;4197;42.130;24.746;2023-04-21T01:22:02;99030.25;;;9.78;100.00
8320;BME280;4197;42.130;24.746;2023-04-21T01:24:35;99031.69;;;9.72;100.00
8320;BME280;4197;42.130;24.746;2023-04-21T01:27:08;99027.28;;;9.64;100.00
8320;BME280;4197;42.130;24.746;2023-04-21T01:29:38;99026.00;;;9.57;100.00
8320;BME280;4197;42.130;24.746;2023-04-21T01:32:07;99026.69;;;9.51;100.00
8320;BME280;4197;42.130;24.746;2023-04-21T01:34:36;99033.91;;;9.47;100.00
8320;BME280;4197;42.130;24.746;2023-04-21T01:37:07;99028.06;;;9.45;100.00
8320;BME280;4197;42.130;24.746;2023-04-21T01:39:37;99031.16;;;9.43;100.00
8320;BME280;4197;42.130;24.746;2023-04-21T01:42:06;99029.94;;;9.41;100.00
8320;BME280;4197;42.130;24.746;2023-04-21T01:44:34;99029.50;;;9.38;100.00
8320;BME280;4197;42.130;24.746;2023-04-21T01:47:03;99024.97;;;9.43;100.00
8320;BME280;4197;42.130;24.746;2023-04-21T01:49:31;99027.56;;;9.39;100.00
8320;BME280;4197;42.130;24.746;2023-04-21T01:52:00;99023.09;;;9.47;100.00
8320;BME280;4197;42.130;24.746;2023-04-21T01:54:32;99022.25;;;9.43;100.00
8320;BME280;4197;42.130;24.746;2023-04-21T01:57:00;99022.59;;;9.41;100.00
8320;BME280;4197;42.130;24.746;2023-04-21T01:59:28;99026.19;;;9.45;100.00
8320;BME280;4197;42.130;24.746;2023-04-21T02:01:57;99035.13;;;9.49;100.00
8320;BME280;4197;42.130;24.746;2023-04-21T02:04:25;99040.69;;;9.37;100.00
8320;BME280;4197;42.130;24.746;2023-04-21T02:06:53;99039.06;;;9.32;100.00
8320;BME280;4197;42.130;24.746;2023-04-21T02:09:22;99038.38;;;9.20;100.00
8320;BME280;4197;42.130;24.746;2023-04-21T02:11:54;99047.47;;;9.11;100.00
8320;BME280;4197;42.130;24.746;2023-04-21T02:14:23;99042.38;;;9.06;100.00
8320;BME280;4197;42.130;24.746;2023-04-21T02:16:51;99048.66;;;8.94;100.00
8320;BME280;4197;42.130;24.746;2023-04-21T02:19:20;99043.09;;;8.87;100.00
8320;BME280;4197;42.130;24.746;2023-04-21T02:21:48;99042.22;;;8.83;100.00
8320;BME280;4197;42.130;24.746;2023-04-21T02:24:16;99040.22;;;8.80;100.00
8320;BME280;4197;42.130;24.746;2023-04-21T02:26:44;99034.31;;;8.75;100.00
8320;BME280;4197;42.130;24.746;2023-04-21T02:29:14;99024.66;;;8.74;100.00
8320;BME280;4197;42.130;24.746;2023-04-21T02:31:42;99038.16;;;8.74;100.00
8320;BME280;4197;42.130;24.746;2023-04-21T02:34:28;99040.88;;;8.74;100.00
8320;BME280;4197;42.130;24.746;2023-04-21T02:36:57;99037.72;;;8.71;100.00
8320;BME280;4197;42.130;24.746;2023-04-21T02:39:25;99032.94;;;8.65;100.00
8320;BME280;4197;42.130;24.746;2023-04-21T02:41:53;99034.44;;;8.62;100.00
8320;BME280;4197;42.130;24.746;2023-04-21T02:44:23;99033.28;;;8.63;100.00
8320;BME280;4197;42.130;24.746;2023-04-21T02:46:52;99032.59;;;8.66;100.00
8320;BME280;4197;42.130;24.746;2023-04-21T02:49:20;99024.91;;;8.68;100.00
8320;BME280;4197;42.130;24.746;2023-04-21T02:51:48;99027.94;;;8.67;100.00
8320;BME280;4197;42.130;24.746;2023-04-21T02:54:16;99024.47;;;8.66;100.00
8320;BME280;4197;42.130;24.746;2023-04-21T02:56:44;99026.84;;;8.68;100.00
8320;BME280;4197;42.130;24.746;2023-04-21T02:59:14;99020.91;;;8.62;100.00
8320;BME280;4197;42.130;24.746;2023-04-21T03:01:44;99024.47;;;8.51;100.00
8320;BME280;4197;42.130;24.746;2023-04-21T03:04:15;99020.41;;;8.41;100.00
8320;BME280;4197;42.130;24.746;2023-04-21T03:06:43;99025.59;;;8.34;100.00
8320;BME280;4197;42.130;24.746;2023-04-21T03:09:11;99026.28;;;8.31;100.00
8320;BME280;4197;42.130;24.746;2023-04-21T03:11:39;99028.47;;;8.25;100.00
8320;BME280;4197;42.130;24.746;2023-04-21T03:14:07;99027.50;;;8.17;100.00
8320;BME280;4197;42.130;24.746;2023-04-21T03:16:35;99034.75;;;8.13;100.00
8320;BME280;4197;42.130;24.746;2023-04-21T03:19:05;99034.03;;;8.16;100.00
8320;BME280;4197;42.130;24.746;2023-04-21T03:21:35;99029.34;;;8.13;100.00
8320;BME280;4197;42.130;24.746;2023-04-21T03:24:05;99035.28;;;8.19;100.00
8320;BME280;4197;42.130;24.746;2023-04-21T03:26:33;99027.63;;;8.21;100.00
8320;BME280;4197;42.130;24.746;2023-04-21T03:29:04;99031.63;;;8.27;100.00
8320;BME280;4197;42.130;24.746;2023-04-21T03:31:32;99032.91;;;8.17;100.00
8320;BME280;4197;42.130;24.746;2023-04-21T03:34:00;99042.22;;;8.20;100.00
8320;BME280;4197;42.130;24.746;2023-04-21T03:36:30;99043.63;;;8.14;100.00
8320;BME280;4197;42.130;24.746;2023-04-21T03:38:58;99037.94;;;8.03;100.00
8320;BME280;4197;42.130;24.746;2023-04-21T03:41:45;99045.28;;;8.02;100.00
8320;BME280;4197;42.130;24.746;2023-04-21T03:44:13;99049.03;;;8.14;100.00
8320;BME280;4197;42.130;24.746;2023-04-21T03:46:41;99049.56;;;8.19;100.00
8320;BME280;4197;42.130;24.746;2023-04-21T03:49:09;99047.63;;;8.20;100.00
8320;BME280;4197;42.130;24.746;2023-04-21T03:51:39;99046.59;;;8.24;100.00
8320;BME280;4197;42.130;24.746;2023-04-21T03:54:07;99053.66;;;8.29;100.00
8320;BME280;4197;42.130;24.746;2023-04-21T03:56:35;99055.75;;;8.36;100.00
8320;BME280;4197;42.130;24.746;2023-04-21T03:59:03;99063.97;;;8.39;100.00
8320;BME280;4197;42.130;24.746;2023-04-21T04:01:32;99059.44;;;8.43;100.00
8320;BME280;4197;42.130;24.746;2023-04-21T04:04:01;99065.47;;;8.53;100.00
8320;BME280;4197;42.130;24.746;2023-04-21T04:06:30;99065.97;;;8.58;100.00
8320;BME280;4197;42.130;24.746;2023-04-21T04:09:00;99058.81;;;8.66;100.00
8320;BME280;4197;42.130;24.746;2023-04-21T04:11:30;99064.56;;;8.80;100.00
8320;BME280;4197;42.130;24.746;2023-04-21T04:13:58;99065.66;;;8.95;100.00
8320;BME280;4197;42.130;24.746;2023-04-21T04:16:27;99066.22;;;9.01;100.00
8320;BME280;4197;42.130;24.746;2023-04-21T04:18:56;99064.66;;;9.19;100.00
8320;BME280;4197;42.130;24.746;2023-04-21T04:21:24;99064.44;;;9.28;100.00
8320;BME280;4197;42.130;24.746;2023-04-21T04:23:53;99064.06;;;9.45;100.00
8320;BME280;4197;42.130;24.746;2023-04-21T04:26:23;99064.97;;;9.53;100.00
8320;BME280;4197;42.130;24.746;2023-04-21T04:28:51;99061.06;;;9.70;100.00
8320;BME280;4197;42.130;24.746;2023-04-21T04:31:22;99060.41;;;9.76;100.00
8320;BME280;4197;42.130;24.746;2023-04-21T04:33:51;99070.25;;;9.85;100.00
8320;BME280;4197;42.130;24.746;2023-04-21T04:36:21;99070.03;;;9.93;100.00
8320;BME280;4197;42.130;24.746;2023-04-21T04:38:49;99078.06;;;10.09;100.00
8320;BME280;4197;42.130;24.746;2023-04-21T04:41:18;99076.91;;;10.30;100.00
8320;BME280;4197;42.130;24.746;2023-04-21T04:43:48;99081.66;;;10.59;100.00
8320;BME280;4197;42.130;24.746;2023-04-21T04:46:16;99079.78;;;10.63;100.00
8320;BME280;4197;42.130;24.746;2023-04-21T04:48:46;99083.09;;;10.76;100.00
8320;BME280;4197;42.130;24.746;2023-04-21T04:51:14;99084.19;;;10.98;100.00
8320;BME280;4197;42.130;24.746;2023-04-21T04:54:00;99086.81;;;11.18;100.00
8320;BME280;4197;42.130;24.746;2023-04-21T04:56:29;99087.84;;;11.09;100.00
8320;BME280;4197;42.130;24.746;2023-04-21T04:58:59;99093.16;;;11.29;100.00
8320;BME280;4197;42.130;24.746;2023-04-21T05:01:27;99096.09;;;11.47;100.00
8320;BME280;4197;42.130;24.746;2023-04-21T05:03:57;99097.72;;;11.51;100.00
8320;BME280;4197;42.130;24.746;2023-04-21T05:06:25;99094.28;;;11.54;100.00
8320;BME280;4197;42.130;24.746;2023-04-21T05:08:54;99096.84;;;11.74;100.00
8320;BME280;4197;42.130;24.746;2023-04-21T05:11:23;99101.63;;;11.84;100.00
8320;BME280;4197;42.130;24.746;2023-04-21T05:13:53;99100.91;;;11.87;100.00
8320;BME280;4197;42.130;24.746;2023-04-21T05:16:22;99096.81;;;12.04;100.00
8320;BME280;4197;42.130;24.746;2023-04-21T05:18:51;99103.59;;;12.21;100.00
8320;BME280;4197;42.130;24.746;2023-04-21T05:21:24;99106.44;;;12.32;100.00
8320;BME280;4197;42.130;24.746;2023-04-21T05:23:54;99101.06;;;12.39;100.00
8320;BME280;4197;42.130;24.746;2023-04-21T05:26:23;99106.22;;;12.51;100.00
8320;BME280;4197;42.130;24.746;2023-04-21T05:28:51;99096.91;;;12.52;100.00
8320;BME280;4197;42.130;24.746;2023-04-21T05:31:19;99103.59;;;12.62;100.00
8320;BME280;4197;42.130;24.746;2023-04-21T05:33:48;99097.50;;;12.79;100.00
8320;BME280;4197;42.130;24.746;2023-04-21T05:36:17;99099.81;;;12.73;100.00
8320;BME280;4197;42.130;24.746;2023-04-21T05:38:47;99095.63;;;12.83;100.00
8320;BME280;4197;42.130;24.746;2023-04-21T05:41:34;99101.09;;;12.90;100.00
8320;BME280;4197;42.130;24.746;2023-04-21T05:44:02;99096.91;;;13.00;100.00
8320;BME280;4197;42.130;24.746;2023-04-21T05:46:30;99089.94;;;13.06;100.00
8320;BME280;4197;42.130;24.746;2023-04-21T05:49:02;99086.53;;;13.24;100.00
8320;BME280;4197;42.130;24.746;2023-04-21T05:51:30;99086.63;;;13.31;100.00
8320;BME280;4197;42.130;24.746;2023-04-21T05:53:58;99088.16;;;13.28;100.00
8320;BME280;4197;42.130;24.746;2023-04-21T05:56:26;99084.75;;;13.46;100.00
8320;BME280;4197;42.130;24.746;2023-04-21T05:58:54;99080.53;;;13.59;100.00
8320;BME280;4197;42.130;24.746;2023-04-21T06:01:23;99077.44;;;13.71;100.00
8320;BME280;4197;42.130;24.746;2023-04-21T06:03:51;99077.88;;;13.80;100.00
8320;BME280;4197;42.130;24.746;2023-04-21T06:06:22;99065.84;;;13.96;100.00
8320;BME280;4197;42.130;24.746;2023-04-21T06:08:50;99068.59;;;14.10;100.00
8320;BME280;4197;42.130;24.746;2023-04-21T06:11:18;99074.09;;;14.24;100.00
8320;BME280;4197;42.130;24.746;2023-04-21T06:13:46;99079.16;;;14.29;100.00
8320;BME280;4197;42.130;24.746;2023-04-21T06:16:15;99074.50;;;14.34;100.00
8320;BME280;4197;42.130;24.746;2023-04-21T06:18:43;99076.44;;;14.40;100.00
8320;BME280;4197;42.130;24.746;2023-04-21T06:21:11;99077.63;;;14.50;100.00
8320;BME280;4197;42.130;24.746;2023-04-21T06:23:41;99077.63;;;14.50;96.34
8320;BME280;4197;42.130;24.746;2023-04-21T06:26:09;99078.41;;;14.47;93.38
8320;BME280;4197;42.130;24.746;2023-04-21T06:28:37;99073.38;;;14.53;91.22
8320;BME280;4197;42.130;24.746;2023-04-21T06:31:05;99060.50;;;14.60;91.28
8320;BME280;4197;42.130;24.746;2023-04-21T06:33:35;99061.28;;;14.64;88.56
8320;BME280;4197;42.130;24.746;2023-04-21T06:36:04;99053.88;;;14.68;87.28
8320;BME280;4197;42.130;24.746;2023-04-21T06:38:32;99055.84;;;14.71;85.95
8320;BME280;4197;42.130;24.746;2023-04-21T06:41:02;99056.22;;;14.81;85.11
8320;BME280;4197;42.130;24.746;2023-04-21T06:43:32;99056.97;;;14.74;85.15
8320;BME280;4197;42.130;24.746;2023-04-21T06:46:00;99055.03;;;14.78;76.54
8320;BME280;4197;42.130;24.746;2023-04-21T06:48:28;99053.47;;;14.84;74.90
8320;BME280;4197;42.130;24.746;2023-04-21T06:50:57;99057.38;;;14.98;72.55
8320;BME280;4197;42.130;24.746;2023-04-21T06:53:26;99064.38;;;15.06;71.65
8320;BME280;4197;42.130;24.746;2023-04-21T06:55:54;99059.69;;;15.06;71.35
8320;BME280;4197;42.130;24.746;2023-04-21T06:58:24;99071.38;;;15.10;70.65
8320;BME280;4197;42.130;24.746;2023-04-21T07:00:52;99066.66;;;15.18;70.38
8320;BME280;4197;42.130;24.746;2023-04-21T07:03:21;99069.00;;;15.30;70.12
8320;BME280;4197;42.130;24.746;2023-04-21T07:05:49;99067.81;;;15.31;69.10
8320;BME280;4197;42.130;24.746;2023-04-21T07:08:18;99076.78;;;15.28;68.79
8320;BME280;4197;42.130;24.746;2023-04-21T07:10:46;99076.38;;;15.37;70.43
8320;BME280;4197;42.130;24.746;2023-04-21T07:13:14;99077.91;;;15.52;70.61
8320;BME280;4197;42.130;24.746;2023-04-21T07:15:44;99081.34;;;15.67;69.89
8320;BME280;4197;42.130;24.746;2023-04-21T07:18:13;99076.69;;;15.71;68.35
8320;BME280;4197;42.130;24.746;2023-04-21T07:20:41;99070.81;;;15.73;68.18
8320;BME280;4197;42.130;24.746;2023-04-21T07:23:09;99079.78;;;15.77;67.68
8320;BME280;4197;42.130;24.746;2023-04-21T07:25:37;99078.25;;;15.69;68.72
8320;BME280;4197;42.130;24.746;2023-04-21T07:28:06;99073.56;;;15.73;66.88
8320;BME280;4197;42.130;24.746;2023-04-21T07:30:34;99073.91;;;15.78;68.49
8320;BME280;4197;42.130;24.746;2023-04-21T07:33:04;99075.06;;;15.81;67.29
8320;BME280;4197;42.130;24.746;2023-04-21T07:35:32;99064.88;;;15.89;67.28
8320;BME280;4197;42.130;24.746;2023-04-21T07:38:00;99069.50;;;15.99;69.02
8320;BME280;4197;42.130;24.746;2023-04-21T07:40:28;99061.72;;;15.97;67.95
8320;BME280;4197;42.130;24.746;2023-04-21T07:42:57;99062.03;;;16.10;67.83
8320;BME280;4197;42.130;24.746;2023-04-21T07:45:26;99069.00;;;16.18;67.83
8320;BME280;4197;42.130;24.746;2023-04-21T07:47:54;99065.81;;;16.31;67.79
8320;BME280;4197;42.130;24.746;2023-04-21T07:50:24;99066.88;;;16.40;66.97
8320;BME280;4197;42.130;24.746;2023-04-21T07:52:52;99070.38;;;16.44;67.61
8320;BME280;4197;42.130;24.746;2023-04-21T07:55:20;99070.31;;;16.51;66.75
8320;BME280;4197;42.130;24.746;2023-04-21T07:57:49;99066.72;;;16.62;67.25
8320;BME280;4197;42.130;24.746;2023-04-21T08:00:17;99061.22;;;16.69;66.12
8320;BME280;4197;42.130;24.746;2023-04-21T08:02:46;99072.50;;;16.75;65.66
8320;BME280;4197;42.130;24.746;2023-04-21T08:05:14;99061.16;;;16.80;66.14
8320;BME280;4197;42.130;24.746;2023-04-21T08:07:44;99065.72;;;16.93;66.47
8320;BME280;4197;42.130;24.746;2023-04-21T08:10:12;99076.53;;;17.08;64.89
8320;BME280;4197;42.130;24.746;2023-04-21T08:12:41;99063.22;;;17.10;63.76
8320;BME280;4197;42.130;24.746;2023-04-21T08:15:09;99063.22;;;17.06;62.70
8320;BME280;4197;42.130;24.746;2023-04-21T08:17:38;99056.25;;;17.02;62.89
8320;BME280;4197;42.130;24.746;2023-04-21T08:20:07;99061.75;;;16.98;63.07
8320;BME280;4197;42.130;24.746;2023-04-21T08:22:36;99053.78;;;17.11;61.79
8320;BME280;4197;42.130;24.746;2023-04-21T08:25:07;99041.69;;;17.08;63.18
8320;BME280;4197;42.130;24.746;2023-04-21T08:27:37;99039.88;;;17.32;62.44
8320;BME280;4197;42.130;24.746;2023-04-21T08:30:08;99047.16;;;17.46;60.69
8320;BME280;4197;42.130;24.746;2023-04-21T08:32:36;99052.31;;;17.71;57.74
8320;BME280;4197;42.130;24.746;2023-04-21T08:35:05;99050.25;;;17.82;58.43
8320;BME280;4197;42.130;24.746;2023-04-21T08:37:35;99054.13;;;17.85;58.55
8320;BME280;4197;42.130;24.746;2023-04-21T08:40:06;99048.53;;;17.92;56.25
8320;BME280;4197;42.130;24.746;2023-04-21T08:42:34;99049.88;;;17.80;55.64
8320;BME280;4197;42.130;24.746;2023-04-21T08:45:05;99044.41;;;17.77;54.80
8320;BME280;4197;42.130;24.746;2023-04-21T08:47:37;99043.97;;;17.82;56.47
8320;BME280;4197;42.130;24.746;2023-04-21T08:50:11;99045.78;;;17.92;55.94
8320;BME280;4197;42.130;24.746;2023-04-21T08:52:40;99049.03;;;17.83;56.95
8320;BME280;4197;42.130;24.746;2023-04-21T08:55:10;99037.94;;;17.94;55.86
8320;BME280;4197;42.130;24.746;2023-04-21T08:57:39;99035.81;;;18.05;55.29
8320;BME280;4197;42.130;24.746;2023-04-21T09:00:09;99032.84;;;18.20;55.39
8320;BME280;4197;42.130;24.746;2023-04-21T09:02:52;99046.66;;;18.40;54.34
8320;BME280;4197;42.130;24.746;2023-04-21T09:05:28;99027.09;;;18.38;54.53
8320;BME280;4197;42.130;24.746;2023-04-21T09:08:07;99022.38;;;18.38;53.82
8320;BME280;4197;42.130;24.746;2023-04-21T09:10:44;99031.00;;;18.37;54.32
8320;BME280;4197;42.130;24.746;2023-04-21T09:13:13;99020.94;;;18.54;51.91
8320;BME280;4197;42.130;24.746;2023-04-21T09:15:43;99005.97;;;18.58;52.29
8320;BME280;4197;42.130;24.746;2023-04-21T09:18:13;99019.06;;;18.70;52.65
8320;BME280;4197;42.130;24.746;2023-04-21T09:20:43;99002.94;;;18.76;51.23
8320;BME280;4197;42.130;24.746;2023-04-21T09:23:13;99000.41;;;18.85;50.67
8320;BME280;4197;42.130;24.746;2023-04-21T09:25:43;98999.09;;;18.93;51.06
8320;BME280;4197;42.130;24.746;2023-04-21T09:28:13;98995.75;;;18.82;52.62
8320;BME280;4197;42.130;24.746;2023-04-21T09:30:42;99003.44;;;18.91;51.63
8320;BME280;4197;42.130;24.746;2023-04-21T09:33:15;98991.50;;;19.01;50.25
8320;BME280;4197;42.130;24.746;2023-04-21T09:35:59;98986.00;;;19.01;49.40
8320;BME280;4197;42.130;24.746;2023-04-21T09:38:27;98992.53;;;19.07;50.54
8320;BME280;4197;42.130;24.746;2023-04-21T09:40:58;98981.47;;;19.11;51.02
8320;BME280;4197;42.130;24.746;2023-04-21T09:43:27;98987.97;;;19.21;49.72
8320;BME280;4197;42.130;24.746;2023-04-21T09:45:55;98986.84;;;19.18;49.72
8320;BME280;4197;42.130;24.746;2023-04-21T09:48:27;98978.66;;;19.14;49.51
8320;BME280;4197;42.130;24.746;2023-04-21T09:50:58;98979.09;;;19.13;51.15
8320;BME280;4197;42.130;24.746;2023-04-21T09:53:48;98972.31;;;19.37;48.48
8320;BME280;4197;42.130;24.746;2023-04-21T09:56:23;98967.84;;;19.44;48.52
8320;BME280;4197;42.130;24.746;2023-04-21T09:58:53;98962.00;;;19.42;49.83
8320;BME280;4197;42.130;24.746;2023-04-21T10:01:23;98966.78;;;19.57;48.97
8320;BME280;4197;42.130;24.746;2023-04-21T10:03:54;98957.31;;;19.58;49.08
8320;BME280;4197;42.130;24.746;2023-04-21T10:06:23;98962.28;;;19.47;49.10
8320;BME280;4197;42.130;24.746;2023-04-21T10:08:53;98960.97;;;19.35;48.79
8320;BME280;4197;42.130;24.746;2023-04-21T10:11:26;98958.63;;;19.34;46.94
8320;BME280;4197;42.130;24.746;2023-04-21T10:13:54;98959.41;;;19.34;47.19
8320;BME280;4197;42.130;24.746;2023-04-21T10:16:22;98952.75;;;19.52;46.20
8320;BME280;4197;42.130;24.746;2023-04-21T10:18:52;98950.09;;;19.65;45.29
8320;BME280;4197;42.130;24.746;2023-04-21T10:21:21;98950.59;;;19.79;45.02
8320;BME280;4197;42.130;24.746;2023-04-21T10:23:50;98950.00;;;19.88;44.00
8320;BME280;4197;42.130;24.746;2023-04-21T10:26:21;98944.22;;;19.82;46.13
8320;BME280;4197;42.130;24.746;2023-04-21T10:28:56;98941.22;;;19.93;45.66
8320;BME280;4197;42.130;24.746;2023-04-21T10:31:29;98950.94;;;19.98;44.27
8320;BME280;4197;42.130;24.746;2023-04-21T10:34:21;98939.09;;;20.01;45.36
8320;BME280;4197;42.130;24.746;2023-04-21T10:37:12;98932.13;;;20.13;43.81
8320;BME280;4197;42.130;24.746;2023-04-21T10:39:48;98934.50;;;20.27;44.24
8320;BME280;4197;42.130;24.746;2023-04-21T10:42:36;98929.31;;;20.45;44.67
8320;BME280;4197;42.130;24.746;2023-04-21T10:45:14;98923.13;;;20.58;42.59
8320;BME280;4197;42.130;24.746;2023-04-21T10:47:46;98934.97;;;20.71;43.99
8320;BME280;4197;42.130;24.746;2023-04-21T10:50:22;98932.88;;;21.17;42.30
8320;BME280;4197;42.130;24.746;2023-04-21T10:52:55;98934.28;;;21.38;39.60
8320;BME280;4197;42.130;24.746;2023-04-21T10:55:26;98944.63;;;21.34;38.86
8320;BME280;4197;42.130;24.746;2023-04-21T10:57:56;98927.13;;;20.99;39.86
8320;BME280;4197;42.130;24.746;2023-04-21T11:00:26;98928.72;;;20.83;40.49
8320;BME280;4197;42.130;24.746;2023-04-21T11:03:00;98935.44;;;20.82;40.48
8320;BME280;4197;42.130;24.746;2023-04-21T11:05:31;98929.19;;;20.94;40.26
8320;BME280;4197;42.130;24.746;2023-04-21T11:08:03;98927.91;;;20.99;38.22
8320;BME280;4197;42.130;24.746;2023-04-21T11:10:46;98929.88;;;20.99;36.90
8320;BME280;4197;42.130;24.746;2023-04-21T11:13:14;98935.56;;;20.79;39.44
8320;BME280;4197;42.130;24.746;2023-04-21T11:15:57;98933.50;;;20.96;40.59
8320;BME280;4197;42.130;24.746;2023-04-21T11:18:38;98931.31;;;21.03;40.56
8320;BME280;4197;42.130;24.746;2023-04-21T11:21:12;98932.69;;;21.24;41.51
8320;BME280;4197;42.130;24.746;2023-04-21T11:23:48;98937.94;;;21.06;41.34
8320;BME280;4197;42.130;24.746;2023-04-21T11:26:18;98931.31;;;21.03;41.67
8320;BME280;4197;42.130;24.746;2023-04-21T11:28:47;98932.41;;;21.06;41.08
8320;BME280;4197;42.130;24.746;2023-04-21T11:31:18;98935.75;;;20.71;42.10
8320;BME280;4197;42.130;24.746;2023-04-21T11:33:46;98922.03;;;20.84;41.59
8320;BME280;4197;42.130;24.746;2023-04-21T11:36:20;98932.06;;;20.91;41.85
8320;BME280;4197;42.130;24.746;2023-04-21T11:38:48;98926.13;;;20.92;40.42
8320;BME280;4197;42.130;24.746;2023-04-21T11:41:19;98934.16;;;21.00;42.40
8320;BME280;4197;42.130;24.746;2023-04-21T11:43:49;98930.34;;;21.10;40.87
8320;BME280;4197;42.130;24.746;2023-04-21T11:46:23;98941.00;;;20.95;40.62
8320;BME280;4197;42.130;24.746;2023-04-21T11:48:58;98934.47;;;20.89;40.72
8320;BME280;4197;42.130;24.746;2023-04-21T11:51:32;98934.16;;;20.87;41.00
8320;BME280;4197;42.130;24.746;2023-04-21T11:54:01;98933.38;;;20.57;41.24
8320;BME280;4197;42.130;24.746;2023-04-21T11:56:33;98934.97;;;20.71;40.78
8320;BME280;4197;42.130;24.746;2023-04-21T11:59:06;98943.91;;;20.75;41.25
8320;BME280;4197;42.130;24.746;2023-04-21T12:01:41;98935.31;;;21.15;40.90
8320;BME280;4197;42.130;24.746;2023-04-21T12:04:13;98939.59;;;21.45;41.78
8320;BME280;4197;42.130;24.746;2023-04-21T12:06:42;98937.06;;;21.64;41.25
8320;BME280;4197;42.130;24.746;2023-04-21T12:09:16;98929.75;;;21.70;40.68
8320;BME280;4197;42.130;24.746;2023-04-21T12:11:47;98923.50;;;21.56;40.40
8320;BME280;4197;42.130;24.746;2023-04-21T12:14:17;98928.09;;;21.47;40.79
8320;BME280;4197;42.130;24.746;2023-04-21T12:16:49;98929.41;;;21.42;41.11
8320;BME280;4197;42.130;24.746;2023-04-21T12:19:21;98926.13;;;20.92;42.37
8320;BME280;4197;42.130;24.746;2023-04-21T12:21:54;98925.47;;;21.01;40.77
8320;BME280;4197;42.130;24.746;2023-04-21T12:24:23;98922.44;;;20.83;41.67
8320;BME280;4197;42.130;24.746;2023-04-21T12:26:53;98918.97;;;21.08;42.37
8320;BME280;4197;42.130;24.746;2023-04-21T12:29:22;98917.19;;;21.43;40.65
8320;BME280;4197;42.130;24.746;2023-04-21T12:31:52;98921.03;;;21.58;38.56
8320;BME280;4197;42.130;24.746;2023-04-21T12:34:21;98917.53;;;21.58;39.03
8320;BME280;4197;42.130;24.746;2023-04-21T12:36:49;98923.16;;;21.67;39.52
8320;BME280;4197;42.130;24.746;2023-04-21T12:39:17;98923.94;;;21.68;39.22
8320;BME280;4197;42.130;24.746;2023-04-21T12:41:46;98934.72;;;21.75;37.35
8320;BME280;4197;42.130;24.746;2023-04-21T12:44:14;98924.00;;;21.26;39.04
8320;BME280;4197;42.130;24.746;2023-04-21T12:46:43;98941.00;;;20.66;41.15
8320;BME280;4197;42.130;24.746;2023-04-21T12:49:13;98951.63;;;20.18;42.32
8320;BME280;4197;42.130;24.746;2023-04-21T12:51:41;98937.00;;;19.72;43.97
8320;BME280;4197;42.130;24.746;2023-04-21T12:54:10;98929.69;;;19.66;44.27
8320;BME280;4197;42.130;24.746;2023-04-21T12:56:38;99043.00;;;19.17;48.60
8320;BME280;4197;42.130;24.746;2023-04-21T12:59:09;98953.91;;;17.50;55.13
8320;BME280;4197;42.130;24.746;2023-04-21T13:01:38;98930.38;;;16.91;71.23
8320;BME280;4197;42.130;24.746;2023-04-21T13:04:09;98919.69;;;16.62;71.65
8320;BME280;4197;42.130;24.746;2023-04-21T13:06:39;98919.72;;;16.59;66.98
8320;BME280;4197;42.130;24.746;2023-04-21T13:09:07;98921.50;;;16.76;66.31
8320;BME280;4197;42.130;24.746;2023-04-21T13:11:36;98907.81;;;16.80;63.13
8320;BME280;4197;42.130;24.746;2023-04-21T13:14:06;98909.63;;;16.90;60.45
8320;BME280;4197;42.130;24.746;2023-04-21T13:16:34;98908.97;;;17.13;58.67
8320;BME280;4197;42.130;24.746;2023-04-21T13:19:03;98896.78;;;17.45;56.66
8320;BME280;4197;42.130;24.746;2023-04-21T13:21:31;98897.19;;;17.97;54.51
8320;BME280;4197;42.130;24.746;2023-04-21T13:24:01;98885.09;;;18.18;51.00
8320;BME280;4197;42.130;24.746;2023-04-21T13:26:32;98881.81;;;18.47;50.03